Time;durP1;ratioP1;P1;durP2;ratioP2;P2;SDS_P1;SDS_P2;PMS_P1;PMS_P2;Temp;Humidity;BMP_temperature;BMP_pressure;BME280_temperature;BME280_humidity;BME280_pressure;Samples;Min_cycle;Max_cycle;Signal;HPM_P1;HPM_P2
2021/12/23 00:01:05;;;;;;;0.95;0.95;;;;;;;-8.64;94.12;100011.59;5013698;28;20050;-66
2021/12/23 00:03:34;;;;;;;1.13;1.10;;;;;;;-8.57;94.11;99993.19;5013824;28;20058;-69
2021/12/23 00:06:01;;;;;;;1.00;1.00;;;;;;;-8.59;94.24;99983.91;5013769;28;20049;-69
2021/12/23 00:08:28;;;;;;;1.30;1.20;;;;;;;-8.64;94.59;99983.84;5013737;28;20130;-69
2021/12/23 00:10:55;;;;;;;0.70;0.70;;;;;;;-8.62;94.26;99987.25;5013552;28;20511;-69
2021/12/23 00:13:23;;;;;;;1.17;0.98;;;;;;;-8.68;94.22;99979.63;5013671;28;20054;-68
2021/12/23 00:16:04;;;;;;;1.20;1.10;;;;;;;-8.68;94.57;99966.13;5013291;28;20056;-64
2021/12/23 00:18:47;;;;;;;0.80;0.80;;;;;;;-8.57;94.43;99955.34;5013640;28;20069;-65
2021/12/23 00:24:00;;;;;;;0.80;0.80;;;;;;;-8.55;94.03;99947.81;5013668;28;20064;-69
2021/12/23 00:26:28;;;;;;;1.00;0.90;;;;;;;-8.56;94.21;99949.44;5013043;28;20546;-68
2021/12/23 00:28:55;;;;;;;1.02;1.02;;;;;;;-8.59;94.15;99941.03;5013185;28;20061;-65
2021/12/23 00:31:22;;;;;;;1.10;1.00;;;;;;;-8.54;94.10;99931.81;5013231;28;20132;-66
2021/12/23 00:33:50;;;;;;;0.90;0.90;;;;;;;-8.50;93.99;99920.06;5013070;28;20519;-69
2021/12/23 00:36:17;;;;;;;0.90;0.90;;;;;;;-8.55;94.45;99913.31;5012798;28;20054;-65
2021/12/23 00:38:50;;;;;;;1.95;1.48;;;;;;;-8.50;94.59;99905.81;5012951;28;20587;-64
2021/12/23 00:41:17;;;;;;;1.00;1.00;;;;;;;-8.45;93.92;99894.06;5013143;28;20041;-64
2021/12/23 00:43:44;;;;;;;1.10;1.00;;;;;;;-8.52;94.19;99884.75;5013035;28;20042;-65
2021/12/23 00:46:10;;;;;;;0.85;0.85;;;;;;;-8.45;94.35;99876.41;5012957;28;20045;-64
2021/12/23 00:48:39;;;;;;;1.17;1.17;;;;;;;-8.39;94.09;99871.38;5013268;28;20046;-64
2021/12/23 00:51:08;;;;;;;1.00;1.00;;;;;;;-8.44;94.32;99864.63;5013030;28;20049;-64
2021/12/23 00:53:38;;;;;;;1.20;1.10;;;;;;;-8.34;93.80;99868.88;5012925;28;20050;-65
2021/12/23 00:56:06;;;;;;;1.13;1.05;;;;;;;-8.41;93.86;99865.50;5012842;28;20489;-66
2021/12/23 00:58:33;;;;;;;1.15;1.15;;;;;;;-8.33;93.55;99860.47;5012628;28;20400;-64
2021/12/23 01:01:00;;;;;;;0.90;0.90;;;;;;;-8.33;93.55;99853.75;5012765;28;20054;-64
2021/12/23 01:03:28;;;;;;;0.90;0.90;;;;;;;-8.34;93.43;99841.97;5013073;28;20145;-65
2021/12/23 01:05:55;;;;;;;1.42;1.13;;;;;;;-8.39;93.71;99837.75;5012606;28;20111;-64
2021/12/23 01:08:24;;;;;;;;;;;;;;;-8.38;93.45;99829.31;5012951;28;20424;-65
2021/12/23 01:10:55;;;;;;;1.40;1.30;;;;;;;-8.42;93.70;99810.84;5012659;28;19928;-64
2021/12/23 01:13:26;;;;;;;0.98;0.98;;;;;;;-8.31;93.34;99810.88;5012648;28;20082;-64
2021/12/23 01:16:05;;;;;;;1.00;1.00;;;;;;;-8.34;93.45;99811.69;5012468;28;20046;-64
2021/12/23 01:18:37;;;;;;;1.08;1.00;;;;;;;-8.26;93.12;99798.28;5012862;28;20046;-64
2021/12/23 01:21:15;;;;;;;1.60;0.95;;;;;;;-8.29;93.03;99783.97;5012691;28;20073;-64
2021/12/23 01:23:48;;;;;;;1.23;1.13;;;;;;;-8.25;92.93;99780.59;5012402;28;20058;-66
2021/12/23 01:26:21;;;;;;;1.30;1.20;;;;;;;-8.20;92.81;99781.47;5012892;28;20420;-69
2021/12/23 01:28:51;;;;;;;1.75;1.00;;;;;;;-8.24;92.88;99769.69;5012411;28;20042;-68
2021/12/23 01:31:18;;;;;;;1.10;1.10;;;;;;;-8.27;92.79;99758.72;5012411;28;20053;-69
2021/12/23 01:33:45;;;;;;;0.80;0.80;;;;;;;-8.19;92.60;99750.38;5012379;28;20049;-68
2021/12/23 01:36:12;;;;;;;0.93;0.93;;;;;;;-8.18;92.23;99744.47;5012203;28;20054;-69
2021/12/23 01:38:39;;;;;;;0.90;0.90;;;;;;;-8.20;92.33;99731.00;5012540;28;20057;-69
2021/12/23 01:41:07;;;;;;;1.10;1.10;;;;;;;-8.21;92.33;99724.28;5012414;28;20408;-68
2021/12/23 01:43:34;;;;;;;1.10;1.00;;;;;;;-8.16;91.92;99706.63;5012553;28;20046;-69
2021/12/23 01:46:01;;;;;;;;;;;;;;;-8.15;91.92;99694.00;5012924;28;20049;-66
2021/12/23 01:48:28;;;;;;;0.90;0.90;;;;;;;-8.16;91.91;99681.41;5016225;28;20363;-69
2021/12/23 01:50:55;;;;;;;0.90;0.90;;;;;;;-8.15;91.88;99685.59;5016304;28;20053;-66
2021/12/23 01:53:22;;;;;;;5.65;0.90;;;;;;;-8.17;92.27;99678.03;5016090;28;20057;-64
2021/12/23 01:55:49;;;;;;;1.25;1.15;;;;;;;-8.15;92.21;99670.44;5015879;28;20046;-68
2021/12/23 01:58:18;;;;;;;2.35;1.35;;;;;;;-8.08;91.61;99653.66;5016135;28;20056;-69
2021/12/23 02:00:47;;;;;;;1.05;1.00;;;;;;;-8.07;91.72;99658.69;5015879;28;20050;-66
2021/12/23 02:03:14;;;;;;;3.40;1.70;;;;;;;-8.02;91.62;99654.50;5015907;28;20053;-65
2021/12/23 02:05:42;;;;;;;1.38;1.27;;;;;;;-7.96;91.19;99652.00;5015840;28;20060;-68
2021/12/23 02:08:09;;;;;;;1.05;1.05;;;;;;;-7.94;91.11;99642.75;5015898;28;20046;-66
2021/12/23 02:10:39;;;;;;;1.15;1.05;;;;;;;-7.93;90.94;99641.06;5015704;28;20052;-68
2021/12/23 02:13:06;;;;;;;1.00;1.00;;;;;;;-7.93;90.97;99634.34;5015543;28;20064;-68
2021/12/23 02:15:34;;;;;;;1.63;1.00;;;;;;;-7.98;91.15;99622.53;5015945;28;20408;-68
2021/12/23 02:18:03;;;;;;;1.02;1.00;;;;;;;-7.99;91.13;99620.84;5015803;28;20053;-68
2021/12/23 02:20:33;;;;;;;2.05;1.50;;;;;;;-7.94;91.07;99614.13;5015613;28;20057;-69
2021/12/23 02:23:00;;;;;;;0.95;0.90;;;;;;;-7.86;90.97;99611.59;5015379;28;20058;-69
2021/12/23 02:25:28;;;;;;;0.93;0.93;;;;;;;-7.87;90.71;99603.19;5016251;28;20069;-70
2021/12/23 02:27:55;;;;;;;1.00;1.00;;;;;;;-7.82;90.65;99599.00;5015570;28;20050;-70
2021/12/23 02:30:29;;;;;;;1.05;0.93;;;;;;;-7.77;90.62;99602.38;5015218;28;20050;-69
2021/12/23 02:32:57;;;;;;;1.00;1.00;;;;;;;-7.73;90.59;99593.09;5015155;28;20057;-69
2021/12/23 02:35:25;;;;;;;2.25;1.00;;;;;;;-7.64;90.12;99593.09;5015201;28;20054;-69
2021/12/23 02:37:54;;;;;;;1.20;1.10;;;;;;;-7.66;90.06;99587.22;5015497;28;20050;-69
2021/12/23 02:40:31;;;;;;;1.48;1.27;;;;;;;-7.58;90.21;99587.22;5015096;28;20053;-67
2021/12/23 02:43:08;;;;;;;1.20;1.10;;;;;;;-7.55;90.29;99588.06;5015248;28;20050;-64
2021/12/23 02:45:35;;;;;;;1.00;1.00;;;;;;;-7.55;90.61;99583.00;5015200;28;20072;-65
2021/12/23 02:48:02;;;;;;;3.75;0.88;;;;;;;-7.57;91.03;99576.28;5015189;28;20053;-68
2021/12/23 02:50:29;;;;;;;0.90;0.90;;;;;;;-7.66;91.34;99564.47;5015093;28;20050;-70
2021/12/23 02:52:58;;;;;;;1.38;1.27;;;;;;;-7.64;91.38;99555.22;5015098;28;20058;-69
2021/12/23 02:55:25;;;;;;;0.95;0.95;;;;;;;-7.60;91.47;99548.47;5014811;28;20071;-69
2021/12/23 02:57:52;;;;;;;1.83;1.20;;;;;;;-7.72;91.21;99539.22;5013618;28;20058;-69
2021/12/23 03:00:20;;;;;;;1.45;1.35;;;;;;;-7.66;91.07;99529.13;5014684;28;20046;-69
2021/12/23 03:02:47;;;;;;;0.95;0.95;;;;;;;-7.67;90.82;99519.88;5015033;28;20133;-65
2021/12/23 03:05:14;;;;;;;0.80;0.80;;;;;;;-7.70;90.64;99515.66;5014926;28;20061;-68
2021/12/23 03:07:41;;;;;;;1.30;1.20;;;;;;;-7.83;90.79;99513.13;5014595;28;20057;-64
2021/12/23 03:10:10;;;;;;;4.43;1.00;;;;;;;-7.86;90.96;99495.44;5014560;28;20481;-68
2021/12/23 03:12:37;;;;;;;0.98;0.98;;;;;;;-7.81;90.42;99473.56;5014537;28;20072;-67
2021/12/23 03:15:05;;;;;;;0.80;0.80;;;;;;;-7.89;90.24;99469.38;5014444;28;20046;-64
2021/12/23 03:17:33;;;;;;;0.80;0.80;;;;;;;-7.98;91.07;99455.91;5014737;28;20050;-65
2021/12/23 03:19:59;;;;;;;0.88;0.88;;;;;;;-8.04;91.30;99450.84;5014529;28;20400;-68
2021/12/23 03:22:26;;;;;;;1.42;1.10;;;;;;;-8.08;91.62;99427.31;5014195;28;20061;-66
2021/12/23 03:24:53;;;;;;;1.15;0.90;;;;;;;-8.14;91.84;99415.53;5014902;28;20054;-67
2021/12/23 03:27:22;;;;;;;0.80;0.80;;;;;;;-8.16;92.04;99407.13;5014345;28;20054;-64
2021/12/23 03:29:49;;;;;;;1.08;0.90;;;;;;;-8.17;93.11;99394.50;5014496;28;20052;-66
2021/12/23 03:32:15;;;;;;;0.95;0.93;;;;;;;-8.11;92.72;99386.94;5014321;28;20049;-64
2021/12/23 03:34:42;;;;;;;0.88;0.88;;;;;;;-8.06;92.55;99384.41;5014240;28;20061;-64
2021/12/23 03:37:09;;;;;;;1.17;0.90;;;;;;;-8.03;92.34;99384.41;5014305;28;20056;-64
2021/12/23 03:39:36;;;;;;;1.02;1.00;;;;;;;-8.00;92.31;99370.06;5014284;28;20054;-64
2021/12/23 03:42:03;;;;;;;1.23;1.15;;;;;;;-7.96;92.33;99363.34;5013978;28;20054;-64
2021/12/23 03:44:31;;;;;;;0.80;0.80;;;;;;;-7.99;92.01;99354.09;5014295;28;20049;-64
2021/12/23 03:46:58;;;;;;;1.15;1.05;;;;;;;-7.99;92.26;99344.00;5014031;28;20508;-65
2021/12/23 03:49:25;;;;;;;1.00;0.90;;;;;;;-7.97;91.89;99337.25;5014088;28;20042;-64
2021/12/23 03:51:52;;;;;;;1.20;1.10;;;;;;;-8.00;91.73;99318.75;5013902;28;20420;-64
2021/12/23 03:54:19;;;;;;;0.82;0.82;;;;;;;-8.04;91.58;99301.94;5013870;28;20046;-64
2021/12/23 03:56:46;;;;;;;1.10;1.00;;;;;;;-8.08;91.38;99305.31;5013978;28;20057;-63
2021/12/23 03:59:14;;;;;;;1.00;1.00;;;;;;;-8.11;90.97;99301.97;5013902;28;20049;-63
2021/12/23 04:01:42;;;;;;;0.82;0.82;;;;;;;-8.13;90.95;99295.22;5013694;28;20108;-63
2021/12/23 04:04:09;;;;;;;1.10;1.00;;;;;;;-8.19;91.13;99287.69;5013730;28;20484;-64
2021/12/23 04:06:36;;;;;;;0.80;0.80;;;;;;;-8.20;90.94;99280.94;5014042;28;20046;-64
2021/12/23 04:09:03;;;;;;;1.10;1.10;;;;;;;-8.25;91.20;99278.44;5013092;28;20412;-63
2021/12/23 04:11:32;;;;;;;1.30;1.20;;;;;;;-8.27;91.70;99274.22;5013555;28;20061;-64
2021/12/23 04:13:58;;;;;;;1.58;1.30;;;;;;;-8.29;91.81;99266.69;5013523;28;20061;-64
2021/12/23 04:16:25;;;;;;;0.82;0.82;;;;;;;-8.21;91.99;99271.72;5013494;28;20053;-63
2021/12/23 04:18:54;;;;;;;1.33;1.23;;;;;;;-8.19;92.60;99272.56;5013389;28;20045;-64
2021/12/23 04:21:21;;;;;;;0.95;0.95;;;;;;;-8.15;92.36;99264.94;5013416;28;20085;-64
2021/12/23 04:23:48;;;;;;;1.20;1.02;;;;;;;-8.14;93.17;99255.72;5013228;28;20061;-64
2021/12/23 04:26:15;;;;;;;1.48;0.98;;;;;;;-8.11;93.04;99250.66;5013671;28;20050;-64
2021/12/23 04:28:48;;;;;;;1.27;1.17;;;;;;;-8.10;93.40;99245.56;5013209;28;20057;-64
2021/12/23 04:31:17;;;;;;;1.80;1.10;;;;;;;-8.06;93.44;99248.94;5013290;28;20108;-63
2021/12/23 04:33:45;;;;;;;1.02;1.00;;;;;;;-8.01;93.64;99243.88;5012980;28;20404;-64
2021/12/23 04:36:14;;;;;;;1.92;1.00;;;;;;;-7.99;93.69;99242.16;5012971;28;20050;-64
2021/12/23 04:38:43;;;;;;;1.63;1.33;;;;;;;-7.91;93.77;99220.28;5013420;28;20046;-65
2021/12/23 04:41:11;;;;;;;1.10;1.00;;;;;;;-7.92;93.53;99216.06;5013180;28;20054;-64
2021/12/23 04:43:38;;;;;;;1.33;1.00;;;;;;;-7.91;93.85;99212.69;5013016;28;20488;-63
2021/12/23 04:46:05;;;;;;;1.45;1.35;;;;;;;-7.85;93.96;99204.25;5012994;28;20053;-64
2021/12/23 04:48:33;;;;;;;1.27;1.10;;;;;;;-7.80;93.97;99198.31;5012934;28;20408;-64
2021/12/23 04:51:01;;;;;;;1.35;1.23;;;;;;;-7.73;93.78;99199.09;5012864;28;20396;-65
2021/12/23 04:53:30;;;;;;;0.90;0.90;;;;;;;-7.66;93.66;99185.59;5012855;28;20061;-65
2021/12/23 04:55:57;;;;;;;1.20;1.10;;;;;;;-7.61;93.75;99181.34;5012854;28;20045;-64
2021/12/23 04:58:24;;;;;;;1.17;1.10;;;;;;;-7.59;93.70;99168.72;5012792;28;20500;-65
2021/12/23 05:00:52;;;;;;;1.10;0.73;;;;;;;-7.58;93.70;99157.78;5012696;28;20046;-69
2021/12/23 05:03:20;;;;;;;1.15;1.05;;;;;;;-7.54;93.65;99152.69;5012322;28;20547;-68
2021/12/23 05:05:47;;;;;;;1.27;1.10;;;;;;;-7.50;93.96;99148.44;5012494;28;20046;-67
2021/12/23 05:08:16;;;;;;;2.05;1.55;;;;;;;-7.44;93.82;99140.84;5012651;28;20053;-67
2021/12/23 05:10:44;;;;;;;1.10;1.00;;;;;;;-7.40;93.80;99134.88;5012777;28;20042;-70
2021/12/23 05:13:11;;;;;;;1.02;1.02;;;;;;;-7.36;94.08;99120.56;5012535;28;20076;-70
2021/12/23 05:15:39;;;;;;;0.80;0.80;;;;;;;-7.33;94.14;99115.47;5012314;28;20061;-69
2021/12/23 05:18:06;;;;;;;1.23;1.10;;;;;;;-7.29;94.22;99115.44;5012420;28;20133;-69
2021/12/23 05:20:34;;;;;;;0.80;0.80;;;;;;;-7.28;94.27;99109.50;5012208;28;20046;-68
2021/12/23 05:23:01;;;;;;;1.00;1.00;;;;;;;-7.29;94.52;99107.84;5011741;28;20053;-69
2021/12/23 05:25:28;;;;;;;1.25;1.15;;;;;;;-7.33;94.56;99098.59;5012878;28;20053;-66
2021/12/23 05:27:58;;;;;;;1.33;1.15;;;;;;;-7.34;94.40;99091.91;5012435;28;20056;-65
2021/12/23 05:30:25;;;;;;;1.05;1.05;;;;;;;-7.39;94.34;99092.78;5012344;28;20052;-67
2021/12/23 05:32:52;;;;;;;;;;;;;;;-7.43;94.39;99081.84;5012995;28;20046;-66
2021/12/23 05:35:20;;;;;;;0.80;0.80;;;;;;;-7.45;94.80;99079.38;5012483;28;19921;-69
2021/12/23 05:37:48;;;;;;;1.02;1.02;;;;;;;-7.51;94.64;99071.00;5012425;28;20476;-68
2021/12/23 05:40:18;;;;;;;1.17;1.08;;;;;;;-7.57;94.77;99069.34;5012273;28;20484;-69
2021/12/23 05:42:46;;;;;;;1.33;1.20;;;;;;;-7.59;94.71;99055.06;5012304;28;20050;-66
2021/12/23 05:45:14;;;;;;;;;;;;;;;-7.56;95.21;99048.28;5012531;28;20046;-67
2021/12/23 05:47:42;;;;;;;0.90;0.90;;;;;;;-7.57;94.98;99043.28;5012490;28;20036;-64
2021/12/23 05:50:11;;;;;;;0.85;0.85;;;;;;;-7.58;95.16;99042.41;5012178;28;20531;-65
2021/12/23 05:52:38;;;;;;;1.30;1.20;;;;;;;-7.57;95.37;99028.94;5012138;28;20050;-66
2021/12/23 05:55:07;;;;;;;2.25;1.52;;;;;;;-7.58;95.26;99034.00;5012016;28;20050;-65
2021/12/23 05:57:34;;;;;;;1.02;0.98;;;;;;;-7.62;95.68;99032.38;5011980;28;20480;-65
2021/12/23 06:00:01;;;;;;;1.73;1.25;;;;;;;-7.62;95.86;99029.84;5012304;28;20042;-65
2021/12/23 06:02:29;;;;;;;2.05;1.60;;;;;;;-7.58;96.28;99026.41;5012257;28;20096;-66
2021/12/23 06:04:56;;;;;;;1.60;1.50;;;;;;;-7.56;96.02;99022.19;5011906;28;20412;-64
2021/12/23 06:07:23;;;;;;;0.90;0.90;;;;;;;-7.56;96.12;99012.09;5011920;28;20480;-64
2021/12/23 06:09:50;;;;;;;1.30;1.30;;;;;;;-7.55;96.08;98998.59;5012005;28;20053;-64
2021/12/23 06:12:17;;;;;;;1.38;1.27;;;;;;;-7.56;95.86;98994.41;5011974;28;20129;-66
2021/12/23 06:14:44;;;;;;;1.40;1.30;;;;;;;-7.59;96.03;98986.88;5012011;28;20057;-68
2021/12/23 06:17:11;;;;;;;1.70;1.30;;;;;;;-7.68;96.39;98980.19;5011970;28;20057;-64
2021/12/23 06:19:39;;;;;;;1.55;1.38;;;;;;;-7.72;96.55;98969.31;5011946;28;20562;-64
2021/12/23 06:22:06;;;;;;;4.50;1.35;;;;;;;-7.71;97.03;98973.50;5011721;28;20484;-63
2021/12/23 06:24:33;;;;;;;2.33;1.52;;;;;;;-7.70;96.49;98966.78;5012266;28;20053;-63
2021/12/23 06:27:00;;;;;;;2.80;1.67;;;;;;;-7.72;96.66;98968.47;5011836;28;20082;-63
2021/12/23 06:29:27;;;;;;;1.90;1.70;;;;;;;-7.65;96.41;98965.03;5011863;28;20481;-63
2021/12/23 06:31:54;;;;;;;2.83;1.50;;;;;;;-7.60;95.22;98967.50;5011882;28;20068;-63
2021/12/23 06:34:21;;;;;;;2.38;1.35;;;;;;;-7.61;95.12;98975.94;5014843;28;20515;-63
2021/12/23 06:36:49;;;;;;;5.68;1.88;;;;;;;-7.72;95.93;98971.81;5015373;28;20041;-64
2021/12/23 06:39:16;;;;;;;3.38;1.92;;;;;;;-7.62;96.20;98970.06;5015251;28;20050;-63
2021/12/23 06:41:43;;;;;;;3.22;1.77;;;;;;;-7.73;95.98;98969.31;5015402;28;20045;-64
2021/12/23 06:44:09;;;;;;;2.55;1.42;;;;;;;-7.75;95.91;98965.97;5015355;28;20382;-64
2021/12/23 06:46:36;;;;;;;1.25;1.15;;;;;;;-7.91;96.49;98967.81;5015146;28;20050;-65
2021/12/23 06:49:03;;;;;;;1.30;1.20;;;;;;;-7.93;97.09;98965.28;5015096;28;20046;-63
2021/12/23 06:51:31;;;;;;;3.47;1.30;;;;;;;-7.94;96.74;98968.69;5015026;28;20053;-64
2021/12/23 06:54:00;;;;;;;;;;;;;;;-8.03;96.99;98966.22;5015621;28;20053;-64
2021/12/23 06:56:27;;;;;;;3.00;1.48;;;;;;;-7.96;97.29;98967.03;5014856;28;19921;-64
2021/12/23 06:58:54;;;;;;;1.60;1.50;;;;;;;-7.82;96.58;98967.72;5014842;28;20046;-63
2021/12/23 07:01:21;;;;;;;1.63;1.25;;;;;;;-7.92;96.38;98964.44;5014803;28;20050;-63
2021/12/23 07:04:05;;;;;;;1.17;1.17;;;;;;;-7.93;97.17;98950.16;5014834;28;20767;-64
2021/12/23 07:06:34;;;;;;;3.78;1.55;;;;;;;-7.95;97.26;98940.91;5014443;28;20408;-64
2021/12/23 07:09:05;;;;;;;2.92;1.50;;;;;;;-8.07;97.72;98939.31;5014503;28;20489;-64
2021/12/23 07:11:32;;;;;;;2.33;1.70;;;;;;;-8.11;98.22;98935.16;5014862;28;20046;-64
2021/12/23 07:14:00;;;;;;;1.58;1.25;;;;;;;-8.04;98.49;98938.47;5014653;28;20048;-64
2021/12/23 07:16:27;;;;;;;1.58;1.27;;;;;;;-8.10;98.43;98929.25;5014386;28;20041;-64
2021/12/23 07:18:53;;;;;;;2.83;1.70;;;;;;;-8.08;98.60;98909.06;5014434;28;20053;-66
2021/12/23 07:21:21;;;;;;;2.80;1.52;;;;;;;-8.04;98.51;98903.13;5014603;28;20050;-64
2021/12/23 07:23:47;;;;;;;;;;;;;;;-7.76;98.12;98893.59;5014734;28;20050;-64
2021/12/23 07:26:16;;;;;;;3.15;1.50;;;;;;;-7.63;96.49;98876.59;5014975;28;20352;-64
2021/12/23 07:28:43;;;;;;;1.77;1.40;;;;;;;-7.72;97.44;98860.72;5014206;28;20046;-63
2021/12/23 07:31:10;;;;;;;1.38;1.20;;;;;;;-7.60;97.10;98851.31;5014241;28;20053;-64
2021/12/23 07:33:37;;;;;;;1.77;1.40;;;;;;;-7.64;95.97;98852.22;5014072;28;20399;-63
2021/12/23 07:36:05;;;;;;;2.13;1.15;;;;;;;-7.83;97.20;98846.53;5014226;28;20058;-64
2021/12/23 07:38:32;;;;;;;3.25;1.33;;;;;;;-7.91;97.53;98839.91;5014164;28;20054;-64
2021/12/23 07:40:59;;;;;;;2.17;1.50;;;;;;;-7.83;97.57;98859.16;5014047;28;20057;-64
2021/12/23 07:43:55;;;;;;;4.10;1.70;;;;;;;-7.68;96.49;98856.44;5013875;28;20068;-64
2021/12/23 07:46:21;;;;;;;4.18;1.67;;;;;;;-7.59;95.82;98874.03;5013704;28;20050;-67
2021/12/23 07:48:48;;;;;;;2.33;1.48;;;;;;;-7.34;94.70;98866.16;5013977;28;20381;-63
2021/12/23 07:51:15;;;;;;;2.03;1.20;;;;;;;-7.36;94.52;98867.88;5013752;28;20042;-63
2021/12/23 07:53:42;;;;;;;2.05;1.33;;;;;;;-7.58;95.04;98875.69;5013938;28;20061;-64
2021/12/23 07:56:09;;;;;;;1.40;1.30;;;;;;;-7.73;95.66;98878.41;5013568;28;20499;-64
2021/12/23 07:58:37;;;;;;;2.35;1.75;;;;;;;-7.80;95.39;98877.66;5013735;28;20604;-66
2021/12/23 08:01:04;;;;;;;2.25;1.45;;;;;;;-7.62;94.84;98870.72;5013853;28;20048;-67
2021/12/23 08:03:31;;;;;;;1.35;1.05;;;;;;;-7.58;93.86;98870.66;5013978;28;20046;-63
2021/12/23 08:05:58;;;;;;;2.35;1.20;;;;;;;-7.85;94.40;98878.56;5013528;28;20507;-67
2021/12/23 08:08:25;;;;;;;1.35;1.25;;;;;;;-8.18;93.84;98888.13;5013690;28;20053;-63
2021/12/23 08:10:52;;;;;;;1.40;0.98;;;;;;;-8.46;91.87;98890.06;5013554;28;20041;-64
2021/12/23 08:13:19;;;;;;;1.33;0.90;;;;;;;-8.62;92.38;98892.72;5013532;28;20048;-65
2021/12/23 08:15:47;;;;;;;1.40;1.30;;;;;;;-8.89;92.13;98900.47;5013393;28;20511;-63
2021/12/23 08:18:14;;;;;;;1.10;1.10;;;;;;;-8.97;91.67;98905.53;5013416;28;20052;-64
2021/12/23 08:20:41;;;;;;;1.10;1.10;;;;;;;-9.13;91.58;98914.88;5013397;28;20050;-64
2021/12/23 08:23:08;;;;;;;1.10;1.00;;;;;;;-9.33;90.24;98924.19;5013243;28;20054;-63
2021/12/23 08:25:35;;;;;;;1.10;1.00;;;;;;;-9.46;91.01;98926.75;5013660;28;20050;-63
2021/12/23 08:28:02;;;;;;;1.02;1.02;;;;;;;-9.71;91.84;98935.22;5012893;28;20057;-65
2021/12/23 08:30:29;;;;;;;1.08;1.08;;;;;;;-9.73;92.10;98940.28;5012905;28;20048;-62
2021/12/23 08:32:57;;;;;;;;;;;;;;;-9.82;91.02;98931.91;5013556;28;20081;-63
2021/12/23 08:35:24;;;;;;;0.93;0.93;;;;;;;-9.80;90.15;98938.63;5012935;28;19922;-64
2021/12/23 08:37:52;;;;;;;1.27;1.20;;;;;;;-9.88;90.56;98935.28;5012860;28;20049;-64
2021/12/23 08:40:22;;;;;;;0.90;0.90;;;;;;;-9.99;89.58;98932.78;5013383;28;20480;-63
2021/12/23 08:42:50;;;;;;;1.95;1.23;;;;;;;-10.14;91.12;98931.13;5013095;28;20416;-62
2021/12/23 08:45:17;;;;;;;1.48;1.33;;;;;;;-10.17;91.32;98941.19;5012826;28;20049;-66
2021/12/23 08:47:45;;;;;;;1.35;1.17;;;;;;;-10.23;90.02;98956.25;5013111;28;20049;-65
2021/12/23 08:50:16;;;;;;;1.83;1.40;;;;;;;-10.25;90.73;98949.56;5012660;28;20056;-63
2021/12/23 08:52:43;;;;;;;1.13;1.13;;;;;;;-10.28;90.17;98964.69;5012664;28;20572;-63
2021/12/23 08:55:11;;;;;;;1.27;1.20;;;;;;;-10.48;89.51;98978.09;5012277;28;20052;-65
2021/12/23 08:57:39;;;;;;;1.67;1.30;;;;;;;-10.53;91.21;98972.22;5012770;28;20045;-63
2021/12/23 09:00:09;;;;;;;2.08;1.58;;;;;;;-10.56;90.26;98980.59;5012676;28;20481;-64
2021/12/23 09:02:36;;;;;;;1.35;1.25;;;;;;;-10.63;89.73;98983.09;5012797;28;20053;-65
2021/12/23 09:05:04;;;;;;;1.10;1.08;;;;;;;-10.56;89.88;98992.31;5012587;28;20045;-65
2021/12/23 09:07:33;;;;;;;1.20;1.10;;;;;;;-10.57;89.75;98993.16;5012620;28;20046;-63
2021/12/23 09:10:00;;;;;;;1.00;1.00;;;;;;;-10.71;89.65;99004.84;5012737;28;20172;-63
2021/12/23 09:12:27;;;;;;;0.90;0.90;;;;;;;-10.75;88.71;99004.84;5012600;28;20488;-64
2021/12/23 09:14:54;;;;;;;;;;;;;;;-10.82;89.41;99002.31;5012989;28;20058;-63
2021/12/23 09:17:21;;;;;;;;;;;;;;;-10.90;88.66;98998.94;5012733;28;19925;-64
2021/12/23 09:19:48;;;;;;;0.95;0.90;;;;;;;-10.98;88.21;98986.34;5012663;28;19948;-64
2021/12/23 09:22:15;;;;;;;1.25;1.10;;;;;;;-11.05;88.94;99003.06;5012438;28;20046;-64
2021/12/23 09:24:46;;;;;;;;;;;;;;;-11.29;88.54;99006.31;5013149;28;20061;-64
2021/12/23 09:27:24;;;;;;;1.02;1.00;;;;;;;-11.22;89.03;99010.53;5012244;28;20375;-63
2021/12/23 09:32:53;;;;;;;1.38;1.27;;;;;;;-11.36;88.64;99003.75;5012390;28;20114;-63
2021/12/23 09:35:23;;;;;;;1.17;1.17;;;;;;;-11.53;89.13;98998.63;5012179;28;20073;-63
2021/12/23 09:37:51;;;;;;;1.38;1.10;;;;;;;-11.59;88.76;98999.44;5012134;28;20065;-63
2021/12/23 09:40:23;;;;;;;2.67;1.00;;;;;;;-11.64;89.42;98994.38;5012112;28;20133;-63
2021/12/23 09:42:50;;;;;;;1.10;1.10;;;;;;;-11.64;88.91;98996.06;5012048;28;20373;-63
2021/12/23 09:45:19;;;;;;;0.88;0.88;;;;;;;-11.71;88.87;98994.34;5012064;28;20046;-65
2021/12/23 09:47:48;;;;;;;5.80;1.70;;;;;;;-11.75;88.80;98995.16;5012042;28;20443;-65
2021/12/23 09:50:17;;;;;;;2.08;1.52;;;;;;;-11.83;89.64;98997.63;5011924;28;20053;-67
2021/12/23 09:52:46;;;;;;;1.23;1.13;;;;;;;-11.85;89.41;98997.59;5012085;28;20042;-65
2021/12/23 09:55:16;;;;;;;1.52;1.42;;;;;;;-11.94;89.02;98990.06;5011924;28;20049;-64
2021/12/23 09:57:47;;;;;;;3.33;1.50;;;;;;;-11.88;89.57;98994.28;5012330;28;20042;-65
2021/12/23 10:00:15;;;;;;;1.08;1.08;;;;;;;-11.84;89.14;98996.78;5011956;28;20042;-63
2021/12/23 10:02:43;;;;;;;2.00;1.90;;;;;;;-11.95;89.80;98995.06;5012283;28;20046;-63
2021/12/23 10:05:11;;;;;;;;;;;;;;;-12.00;89.83;99000.03;5012303;28;20396;-67
2021/12/23 10:07:39;;;;;;;1.20;1.15;;;;;;;-11.98;89.78;98997.56;5012977;28;19922;-63
2021/12/23 10:10:12;;;;;;;0.90;0.90;;;;;;;-12.00;90.04;99005.06;5015848;28;20045;-68
2021/12/23 10:27:26;;;;;;;1.30;1.10;;;;;;;-12.03;89.71;98999.19;5015838;28;20052;-62
2021/12/23 10:33:08;;;;;;;0.93;0.93;;;;;;;-12.16;90.54;98999.09;5015333;28;20057;-63
2021/12/23 10:38:23;;;;;;;1.30;1.20;;;;;;;-12.02;90.09;99003.34;5015310;28;20499;-63
2021/12/23 10:40:53;;;;;;;1.25;1.25;;;;;;;-11.99;89.38;99011.75;5015103;28;20045;-63
2021/12/23 10:43:29;;;;;;;1.40;1.30;;;;;;;-12.04;89.32;99005.88;5015131;28;20045;-63
2021/12/23 10:45:59;;;;;;;1.17;1.15;;;;;;;-12.14;89.82;99001.63;5015076;28;20058;-63
2021/12/23 10:48:32;;;;;;;1.98;1.17;;;;;;;-12.09;90.62;98994.97;5015071;28;20049;-63
2021/12/23 10:51:04;;;;;;;1.40;1.23;;;;;;;-12.18;92.19;98992.38;5015273;28;20050;-65
2021/12/23 10:53:49;;;;;;;1.20;1.10;;;;;;;-12.30;91.43;99001.47;5015330;28;20153;-64
2021/12/23 10:59:13;;;;;;;1.67;1.30;;;;;;;-12.26;90.34;99007.34;5015035;28;20131;-66
2021/12/23 11:02:13;;;;;;;0.98;0.98;;;;;;;-12.26;90.73;99006.53;5014840;28;20057;-62
2021/12/23 11:05:02;;;;;;;1.00;1.00;;;;;;;-12.10;89.79;98996.66;5014595;28;20543;-65
2021/12/23 11:07:41;;;;;;;0.90;0.90;;;;;;;-12.09;89.40;98998.31;5014767;28;20476;-67
2021/12/23 11:10:17;;;;;;;6.20;1.30;;;;;;;-12.24;89.48;98995.69;5014672;28;20057;-66
2021/12/23 11:38:34;;;;;;;0.90;0.90;;;;;;;-12.33;89.85;98980.53;4992529;28;20054;-64
2021/12/23 11:41:14;;;;;;;0.90;0.90;;;;;;;-12.30;90.28;98988.94;4992388;28;20050;-64
2021/12/23 11:43:48;;;;;;;1.00;1.00;;;;;;;-12.29;90.16;98977.25;5004746;28;20042;-65
2021/12/23 11:46:23;;;;;;;1.25;1.08;;;;;;;-12.28;90.05;98983.94;5013984;28;20136;-65
2021/12/23 11:48:54;;;;;;;0.90;0.90;;;;;;;-12.22;89.89;98989.03;5013987;28;20093;-63
2021/12/23 11:51:29;;;;;;;0.98;0.98;;;;;;;-12.26;89.85;98996.50;5013754;28;20046;-64
2021/12/23 11:53:58;;;;;;;1.05;1.00;;;;;;;-12.36;88.94;98995.56;5013676;28;20401;-64
2021/12/23 11:56:26;;;;;;;1.48;1.38;;;;;;;-12.26;89.19;98997.31;5013562;28;20065;-67
2021/12/23 11:58:57;;;;;;;0.90;0.90;;;;;;;-12.31;88.97;98997.28;5013634;28;20050;-64
2021/12/23 12:01:26;;;;;;;1.30;1.20;;;;;;;-12.55;89.70;99010.44;5013792;28;20076;-64
2021/12/23 12:03:56;;;;;;;1.42;1.38;;;;;;;-12.43;90.03;99018.88;5013630;28;20551;-64
2021/12/23 12:06:25;;;;;;;0.98;0.95;;;;;;;-12.50;90.59;99016.34;5013587;28;20053;-63
2021/12/23 12:09:11;;;;;;;1.52;0.95;;;;;;;-12.60;90.04;99014.56;5013788;28;20054;-63
2021/12/23 12:11:39;;;;;;;1.23;1.20;;;;;;;-12.50;89.10;99015.50;5013778;28;20056;-64
2021/12/23 12:14:26;;;;;;;1.33;1.23;;;;;;;-12.69;89.37;99016.13;5013525;28;20057;-66
2021/12/23 12:16:53;;;;;;;1.00;1.00;;;;;;;-12.91;90.82;99027.59;5013167;28;20042;-64
2021/12/23 12:19:52;;;;;;;0.90;0.90;;;;;;;-12.76;90.29;99022.75;5013319;28;20405;-63
2021/12/23 12:22:47;;;;;;;1.20;1.05;;;;;;;-12.85;89.94;99031.00;5013228;28;20046;-63
2021/12/23 12:25:56;;;;;;;4.05;0.98;;;;;;;-12.81;89.86;99031.88;5013691;28;20050;-62
2021/12/23 12:28:26;;;;;;;0.90;0.90;;;;;;;-12.96;90.60;99028.38;5013123;28;20050;-63
2021/12/23 12:30:56;;;;;;;1.10;1.10;;;;;;;-13.01;91.15;99039.16;5012800;28;20050;-63
2021/12/23 12:33:43;;;;;;;1.20;1.02;;;;;;;-13.15;91.55;99039.00;5013058;28;20405;-62
2021/12/23 12:36:13;;;;;;;0.90;0.90;;;;;;;-13.12;90.12;99040.69;5013199;28;20058;-63
2021/12/23 12:38:42;;;;;;;0.95;0.95;;;;;;;-13.22;89.55;99035.56;5013081;28;20049;-63